Dover Air Force Base
KDOV : now visible

Airfield :











YOU CAN JOIN US ON...

 
LOGIN :

Register | Disclaimer

   EN    FR    IT 

 









Legend :    VFR   Marginal VFR   IFR   Intensive IFR   Very Intensive IFR
Visi :
Ceiling :
>= 8 km
>= 3000ft
5 to 8 km
1000 to 3000 ft
1500m to 5 km
500 to 1000 ft
800 to 1500m
200 to 500 ft
< 800m
< 200 ft
Symbols :   Thunderstorms  Fog  Heavy snow  Heavy precipitations  Wind > 20 kt






- Airport Elevation : 24 ft


KDOV - Dover Air Force Base

CURRENT METAR :
  • 281516Z AUTO 12006KT 10SM OVC015 24/22 A3012 RMK AO2 SLP203 $

EXPIRED METARs :
  • 281456Z AUTO 11007KT 10SM OVC014 24/22 A3012 RMK AO2 SLP203 T02420215 57009 $
  • 281356Z AUTO 11007KT 10SM OVC013 22/20 A3013 RMK AO2 SLP206 T02160204 $
  • 281256Z AUTO 11006KT 10SM OVC010 22/21 A3014 RMK AO2 SLP210 T02180209 $

TAF AMD TAF KDOV
Valid from the 28 at 13:00 until the 29 at 14:00 UTC


281300Z 2813/2914 11009KT 9999 -SHRA OVC010 510003 QNH3012INS
TEMPO 2813/2816 OVC009
BECMG 2815/2816 16010G15KT 9999 -SHRA BKN015 BKN020 510003 QNH3009INS
BECMG 2817/2818 16012G20KT 9999 NSW SCT020 BKN030 510003 QNH3006INS
BECMG 2904/2905 18012G20KT 9999 OVC006 QNH3005INS
BECMG 2908/2909 18012G20KT 8000 -RA OVC006 QNH3004INS
TEMPO 2910/2914 4800 RA TX25/2821Z TN18/2910Z
KZDC FIR / North America



MET'MAP, your aeronautical weather chart ! - Copyright ORBIFLY December 2007 - Disclaimer

ORBIFLY MET'MAP TEAM :

Programming & Development : Alexandra Zaïnal
Concept & original design : Baudouin d'Aumeries
Assistance for programming : Marc-Olivier Méhu
Technical & hardware support : Manuel Goepfert

Contact : metmap@orbifly.com




SOURCES & CREDITS :

   NOAA       Earth
Advisory